createdAt,value
2018-08-18T00:01:48.235Z,20.90
2018-08-18T00:04:30.586Z,20.80
2018-08-18T00:06:59.714Z,20.90
2018-08-18T00:09:27.927Z,20.80
2018-08-18T00:11:56.210Z,20.80
2018-08-18T00:14:24.837Z,20.70
2018-08-18T00:16:53.072Z,20.60
2018-08-18T00:19:23.547Z,20.70
2018-08-18T00:21:51.843Z,20.70
2018-08-18T00:24:20.048Z,20.60
2018-08-18T00:26:48.273Z,20.60
2018-08-18T00:29:16.504Z,20.60
2018-08-18T00:31:45.752Z,20.60
2018-08-18T00:34:14.020Z,20.50
2018-08-18T00:36:42.256Z,20.50
2018-08-18T00:39:11.731Z,20.60
2018-08-18T00:41:40.240Z,20.50
2018-08-18T00:44:09.586Z,20.50
2018-08-18T00:46:37.791Z,20.50
2018-08-18T00:49:06.691Z,20.50
2018-08-18T00:51:35.936Z,20.40
2018-08-18T00:54:05.744Z,20.40
2018-08-18T00:56:38.662Z,20.30
2018-08-18T00:59:07.005Z,20.30
2018-08-18T01:01:35.380Z,20.20
2018-08-18T01:04:06.472Z,20.10
2018-08-18T01:06:38.079Z,20.20
2018-08-18T01:09:08.981Z,19.90
2018-08-18T01:11:37.273Z,19.90
2018-08-18T01:14:13.228Z,19.90
2018-08-18T01:16:46.702Z,19.90
2018-08-18T01:22:13.686Z,19.70
2018-08-18T01:24:41.831Z,19.50
2018-08-18T01:27:10.094Z,19.40
2018-08-18T01:29:38.229Z,19.50
2018-08-18T01:32:06.430Z,19.40
2018-08-18T01:34:34.607Z,19.40
2018-08-18T01:44:12.455Z,18.80
2018-08-18T01:46:42.751Z,18.90
2018-08-18T01:49:37.147Z,19.00
2018-08-18T01:52:17.007Z,19.00
2018-08-18T01:54:45.926Z,19.10
2018-08-18T01:57:15.881Z,19.10
2018-08-18T01:59:45.581Z,19.10
2018-08-18T02:02:15.551Z,19.10
2018-08-18T02:04:44.681Z,19.10
2018-08-18T02:07:21.767Z,19.20
2018-08-18T02:09:50.496Z,19.10
2018-08-18T02:12:22.228Z,19.10
2018-08-18T02:14:50.942Z,19.10
2018-08-18T02:17:24.211Z,19.10
2018-08-18T02:19:53.061Z,19.10
2018-08-18T02:22:22.492Z,19.00
2018-08-18T02:24:56.035Z,19.00
2018-08-18T02:27:30.647Z,19.10
2018-08-18T02:30:17.945Z,19.00
2018-08-18T02:32:46.735Z,19.00
2018-08-18T02:37:58.662Z,18.90
2018-08-18T02:40:26.883Z,18.90
2018-08-18T02:42:55.077Z,19.00
2018-08-18T02:45:23.236Z,19.00
2018-08-18T02:48:07.190Z,19.00
2018-08-18T02:50:35.472Z,18.90
2018-08-18T02:53:13.611Z,18.80
2018-08-18T02:55:41.816Z,18.80
2018-08-18T02:58:10.062Z,18.80
2018-08-18T03:00:38.250Z,18.80
2018-08-18T03:03:06.438Z,18.90
2018-08-18T03:05:34.592Z,18.90
2018-08-18T03:08:02.811Z,18.90
2018-08-18T03:13:00.052Z,18.90
2018-08-18T03:16:02.300Z,18.90
2018-08-18T03:18:36.842Z,18.80
2018-08-18T03:21:05.179Z,18.80
2018-08-18T03:23:34.082Z,19.00
2018-08-18T03:26:02.243Z,18.90
2018-08-18T03:28:36.465Z,18.90
2018-08-18T03:31:05.519Z,19.00
2018-08-18T03:33:33.765Z,19.00
2018-08-18T03:36:07.982Z,18.90
2018-08-18T03:38:36.256Z,19.00
2018-08-18T03:41:04.412Z,18.90
2018-08-18T03:43:32.579Z,18.90
2018-08-18T03:46:00.744Z,18.90
2018-08-18T03:48:28.897Z,19.00
2018-08-18T03:50:57.097Z,19.00
2018-08-18T03:53:25.238Z,19.00
2018-08-18T03:55:53.571Z,19.00
2018-08-18T03:58:21.815Z,19.00
2018-08-18T04:00:50.015Z,19.10
2018-08-18T04:03:18.248Z,19.00
2018-08-18T04:05:46.488Z,19.00
2018-08-18T04:08:14.804Z,19.20
2018-08-18T04:10:43.007Z,18.70
2018-08-18T04:15:39.243Z,19.10
2018-08-18T04:18:13.875Z,19.20
2018-08-18T04:25:37.940Z,19.20
2018-08-18T04:28:06.188Z,19.20
2018-08-18T04:30:34.430Z,19.10
2018-08-18T04:33:04.455Z,19.10
2018-08-18T04:35:33.258Z,19.20
2018-08-18T04:38:02.109Z,19.10
2018-08-18T04:40:30.334Z,19.00
2018-08-18T04:42:59.587Z,19.00
2018-08-18T04:45:27.756Z,19.10
2018-08-18T04:47:55.991Z,19.10
2018-08-18T04:50:24.199Z,19.10
2018-08-18T04:52:53.117Z,19.20
2018-08-18T04:55:21.370Z,19.10
2018-08-18T04:57:49.659Z,19.30
2018-08-18T05:00:17.845Z,19.20
2018-08-18T05:02:51.499Z,19.20
2018-08-18T05:05:21.547Z,19.20
2018-08-18T05:07:50.455Z,19.30
2018-08-18T05:10:20.779Z,19.30
2018-08-18T05:12:48.977Z,19.40
2018-08-18T05:15:18.309Z,19.50
2018-08-18T05:17:47.334Z,19.50
2018-08-18T05:20:18.275Z,19.60
2018-08-18T05:22:46.619Z,19.90
2018-08-18T05:25:15.239Z,19.70
2018-08-18T05:27:43.457Z,19.70
2018-08-18T05:30:11.693Z,19.90
2018-08-18T05:32:39.947Z,19.90
2018-08-18T05:35:09.062Z,20.00
2018-08-18T05:37:37.295Z,20.20
2018-08-18T05:40:06.095Z,20.10
2018-08-18T05:42:34.308Z,20.20
2018-08-18T05:45:18.099Z,20.20
2018-08-18T05:47:46.305Z,20.20
2018-08-18T05:50:14.575Z,20.40
2018-08-18T05:54:12.042Z,20.50
2018-08-18T05:56:41.593Z,20.60
2018-08-18T05:59:09.831Z,20.80
2018-08-18T06:01:39.443Z,21.00
2018-08-18T06:04:15.640Z,21.20
2018-08-18T06:06:44.839Z,21.40
2018-08-18T06:09:14.363Z,21.60
2018-08-18T06:11:42.689Z,21.80
2018-08-18T06:14:11.844Z,21.90
2018-08-18T06:16:40.459Z,22.10
2018-08-18T06:19:08.756Z,22.20
2018-08-18T06:21:37.048Z,22.30
2018-08-18T06:24:05.353Z,22.40
2018-08-18T06:26:33.691Z,22.50
2018-08-18T06:29:01.858Z,22.60
2018-08-18T06:31:30.065Z,22.80
2018-08-18T06:33:58.231Z,23.00
2018-08-18T06:36:26.431Z,23.10
2018-08-18T06:39:00.914Z,23.30
2018-08-18T06:41:29.141Z,23.40
2018-08-18T06:43:57.227Z,23.50
2018-08-18T06:46:25.439Z,23.70
2018-08-18T06:48:53.688Z,23.90
2018-08-18T06:51:21.867Z,24.10
2018-08-18T06:53:50.040Z,24.20
2018-08-18T06:58:46.135Z,24.40
2018-08-18T07:01:14.324Z,24.40
2018-08-18T07:03:46.720Z,24.50
2018-08-18T07:06:16.056Z,24.70
2018-08-18T07:08:49.701Z,24.90
2018-08-18T07:11:17.929Z,24.90
2018-08-18T07:13:46.714Z,25.00
2018-08-18T07:16:14.913Z,25.20
2018-08-18T07:18:43.142Z,25.20
2018-08-18T07:21:11.314Z,25.40
2018-08-18T07:23:39.515Z,25.60
2018-08-18T07:26:07.721Z,25.70
2018-08-18T07:28:35.988Z,25.90
2018-08-18T07:31:04.261Z,25.80
2018-08-18T07:33:32.564Z,25.90
2018-08-18T07:36:01.794Z,26.10
2018-08-18T07:38:29.960Z,26.10
2018-08-18T07:40:58.172Z,26.20
2018-08-18T07:43:28.352Z,26.20
2018-08-18T07:45:59.858Z,26.10
2018-08-18T07:48:28.039Z,26.20
2018-08-18T07:50:56.181Z,26.20
2018-08-18T07:53:24.396Z,26.40
2018-08-18T07:55:52.610Z,27.00
2018-08-18T08:00:50.035Z,26.80
2018-08-18T08:03:18.851Z,27.10
2018-08-18T08:05:47.042Z,27.00
2018-08-18T08:08:16.292Z,27.20
2018-08-18T08:10:44.519Z,27.30
2018-08-18T08:13:13.839Z,27.20
2018-08-18T08:15:42.100Z,27.50
2018-08-18T08:18:12.715Z,27.50
2018-08-18T08:20:40.903Z,27.40
2018-08-18T08:23:09.235Z,27.50
2018-08-18T08:25:37.416Z,27.50
2018-08-18T08:28:05.618Z,27.40
2018-08-18T08:30:33.899Z,27.20
2018-08-18T08:33:02.058Z,27.20
2018-08-18T08:35:30.238Z,27.10
2018-08-18T08:37:58.424Z,27.10
2018-08-18T08:40:26.592Z,27.20
2018-08-18T08:42:54.913Z,27.10
2018-08-18T08:45:24.080Z,27.20
2018-08-18T08:47:52.335Z,27.30
2018-08-18T08:50:22.375Z,27.30
2018-08-18T08:52:55.733Z,27.20
2018-08-18T08:55:25.147Z,27.50
2018-08-18T08:57:53.317Z,27.60
2018-08-18T09:00:21.483Z,27.70
2018-08-18T09:02:49.675Z,27.60
2018-08-18T09:05:18.585Z,27.70
2018-08-18T09:07:46.769Z,27.60
2018-08-18T09:10:15.462Z,27.60
2018-08-18T09:12:43.613Z,27.70
2018-08-18T09:15:12.799Z,28.00
2018-08-18T09:17:40.963Z,28.10
2018-08-18T09:20:12.921Z,28.20
2018-08-18T09:23:02.946Z,28.30
2018-08-18T09:25:32.307Z,28.30
2018-08-18T09:28:02.047Z,28.20
2018-08-18T09:30:31.500Z,28.40
2018-08-18T09:33:01.777Z,28.40
2018-08-18T09:35:31.152Z,28.50
2018-08-18T09:38:00.791Z,28.50
2018-08-18T09:40:30.667Z,28.40
2018-08-18T09:42:58.956Z,28.30
2018-08-18T09:45:27.251Z,28.40
2018-08-18T09:47:55.505Z,28.60
2018-08-18T09:50:23.732Z,28.60
2018-08-18T09:52:51.992Z,28.70
2018-08-18T09:55:20.301Z,28.70
2018-08-18T09:57:48.510Z,28.60
2018-08-18T10:00:16.725Z,28.70
2018-08-18T10:02:44.932Z,28.60
2018-08-18T10:05:13.177Z,28.60
2018-08-18T10:07:41.608Z,28.80
2018-08-18T10:10:11.542Z,29.00
2018-08-18T10:15:07.976Z,29.30
2018-08-18T10:17:36.196Z,29.40
2018-08-18T10:20:05.174Z,29.40
2018-08-18T10:22:33.336Z,29.30
2018-08-18T10:25:01.591Z,29.30
2018-08-18T10:27:29.781Z,29.30
2018-08-18T10:29:57.944Z,29.40
2018-08-18T10:32:26.111Z,29.60
2018-08-18T10:34:54.275Z,29.70
2018-08-18T10:37:22.477Z,29.90
2018-08-18T10:39:51.282Z,29.80
2018-08-18T10:42:25.550Z,29.80
2018-08-18T10:44:59.124Z,29.60
2018-08-18T10:47:27.364Z,29.50
2018-08-18T10:50:07.012Z,29.60
2018-08-18T10:52:46.675Z,29.60
2018-08-18T10:55:16.934Z,29.50
2018-08-18T10:58:01.795Z,29.40
2018-08-18T11:00:31.000Z,29.30
2018-08-18T11:03:00.521Z,29.30
2018-08-18T11:05:29.332Z,29.30
2018-08-18T11:08:03.208Z,29.40
2018-08-18T11:10:32.919Z,29.40
2018-08-18T11:13:01.482Z,29.50
2018-08-18T11:15:29.668Z,29.60
2018-08-18T11:17:58.301Z,29.50
2018-08-18T11:20:27.748Z,29.50
2018-08-18T11:27:58.391Z,29.40
2018-08-18T11:30:26.748Z,29.40
2018-08-18T11:32:56.090Z,29.40
2018-08-18T11:35:24.443Z,29.30
2018-08-18T11:37:56.915Z,29.20
2018-08-18T11:40:26.043Z,29.30
2018-08-18T11:42:56.259Z,29.20
2018-08-18T11:45:27.583Z,29.10
2018-08-18T11:48:02.552Z,29.20
2018-08-18T11:50:30.780Z,29.30
2018-08-18T11:52:59.339Z,29.30
2018-08-18T11:55:27.764Z,29.40
2018-08-18T11:58:07.824Z,29.50
2018-08-18T12:00:57.185Z,29.60
2018-08-18T12:03:28.794Z,29.50
2018-08-18T12:05:58.155Z,29.70
2018-08-18T12:08:27.674Z,29.60
2018-08-18T12:10:57.411Z,29.70
2018-08-18T12:13:31.244Z,29.70
2018-08-18T12:16:08.543Z,29.70
2018-08-18T12:18:38.279Z,29.70
2018-08-18T12:21:06.540Z,29.50
2018-08-18T12:23:35.651Z,29.60
2018-08-18T12:26:05.921Z,29.60
2018-08-18T12:28:39.670Z,29.60
2018-08-18T12:31:09.829Z,29.30
2018-08-18T12:33:38.117Z,29.30
2018-08-18T12:36:06.523Z,29.60
2018-08-18T12:38:35.023Z,29.40
2018-08-18T12:41:04.151Z,29.50
2018-08-18T12:43:38.695Z,29.60
2018-08-18T12:46:08.433Z,29.50
2018-08-18T12:48:38.201Z,29.60
2018-08-18T12:51:07.413Z,29.60
2018-08-18T12:53:41.171Z,29.60
2018-08-18T12:56:11.180Z,29.50
2018-08-18T12:58:39.758Z,29.50
2018-08-18T13:01:07.799Z,29.60
2018-08-18T13:03:36.027Z,29.70
2018-08-18T13:06:04.244Z,29.70
2018-08-18T13:08:32.583Z,29.70
2018-08-18T13:11:00.838Z,29.70
2018-08-18T13:13:29.303Z,29.80
2018-08-18T13:15:57.508Z,29.70
2018-08-18T13:18:25.750Z,29.70
2018-08-18T13:20:55.212Z,29.70
2018-08-18T13:23:24.515Z,29.70
2018-08-18T13:25:53.063Z,29.60
2018-08-18T13:28:22.419Z,29.60
2018-08-18T13:30:50.651Z,29.60
2018-08-18T13:33:18.894Z,29.60
2018-08-18T13:35:48.090Z,29.60
2018-08-18T13:38:27.480Z,30.10
2018-08-18T13:40:56.135Z,29.50
2018-08-18T13:43:39.999Z,29.40
2018-08-18T13:46:10.068Z,29.40
2018-08-18T13:48:38.271Z,29.20
2018-08-18T13:51:07.791Z,29.10
2018-08-18T13:53:43.526Z,29.10
2018-08-18T13:56:11.783Z,29.20
2018-08-18T13:58:40.057Z,29.30
2018-08-18T14:01:23.763Z,29.40
2018-08-18T14:03:52.295Z,29.20
2018-08-18T14:06:20.571Z,29.30
2018-08-18T14:08:53.063Z,29.30
2018-08-18T14:11:21.299Z,29.30
2018-08-18T14:13:49.522Z,29.20
2018-08-18T14:16:17.736Z,29.20
2018-08-18T14:18:45.938Z,29.20
2018-08-18T14:21:14.187Z,29.20
2018-08-18T14:23:42.444Z,29.20
2018-08-18T14:26:10.604Z,29.20
2018-08-18T14:28:38.823Z,29.10
2018-08-18T14:31:07.115Z,29.20
2018-08-18T14:33:35.283Z,29.20
2018-08-18T14:36:10.604Z,29.20
2018-08-18T14:38:38.916Z,29.20
2018-08-18T14:41:07.218Z,29.30
2018-08-18T14:43:40.374Z,29.40
2018-08-18T14:46:13.343Z,29.40
2018-08-18T14:48:41.605Z,29.40
2018-08-18T14:51:09.935Z,29.50
2018-08-18T14:53:41.655Z,29.60
2018-08-18T14:56:09.882Z,29.70
2018-08-18T14:58:38.164Z,29.60
2018-08-18T15:01:11.084Z,29.40
2018-08-18T15:03:39.558Z,29.70
2018-08-18T15:06:07.848Z,29.80
2018-08-18T15:08:36.137Z,29.80
2018-08-18T15:11:04.415Z,29.80
2018-08-18T15:13:32.665Z,29.70
2018-08-18T15:16:00.930Z,29.70
2018-08-18T15:18:29.207Z,29.60
2018-08-18T15:20:57.541Z,29.60
2018-08-18T15:23:25.712Z,29.60
2018-08-18T15:25:53.870Z,29.60
2018-08-18T15:28:22.099Z,29.60
2018-08-18T15:30:52.735Z,29.60
2018-08-18T15:33:22.156Z,29.70
2018-08-18T15:35:50.345Z,29.50
2018-08-18T15:38:18.585Z,29.50
2018-08-18T15:40:46.648Z,29.60
2018-08-18T15:43:14.881Z,29.70
2018-08-18T15:45:57.404Z,29.70
2018-08-18T15:48:25.619Z,29.60
2018-08-18T15:50:53.897Z,29.50
2018-08-18T15:53:53.416Z,29.40
2018-08-18T15:56:22.176Z,29.40
2018-08-18T15:58:50.999Z,29.40
2018-08-18T16:01:21.626Z,29.40
2018-08-18T16:03:49.872Z,29.40
2018-08-18T16:06:18.107Z,29.30
2018-08-18T16:08:46.372Z,29.30
2018-08-18T16:11:14.685Z,29.30
2018-08-18T16:13:42.858Z,29.20
2018-08-18T16:16:11.128Z,29.20
2018-08-18T16:18:39.276Z,29.60
2018-08-18T16:21:14.424Z,29.30
2018-08-18T16:23:43.138Z,29.20
2018-08-18T16:28:40.559Z,29.20
2018-08-18T16:31:09.445Z,29.20
2018-08-18T16:33:37.650Z,29.20
2018-08-18T16:36:05.895Z,29.10
2018-08-18T16:38:34.144Z,29.20
2018-08-18T16:41:02.363Z,29.20
2018-08-18T16:43:33.638Z,29.20
2018-08-18T16:46:20.751Z,29.10
2018-08-18T16:48:49.611Z,29.10
2018-08-18T16:51:17.920Z,29.00
2018-08-18T16:53:46.367Z,29.00
2018-08-18T16:56:21.672Z,29.00
2018-08-18T16:58:50.799Z,29.00
2018-08-18T17:01:19.184Z,29.00
2018-08-18T17:03:47.446Z,28.90
2018-08-18T17:06:15.691Z,28.90
2018-08-18T17:08:43.906Z,28.90
2018-08-18T17:11:12.131Z,28.90
2018-08-18T17:13:40.431Z,28.80
2018-08-18T17:16:08.707Z,28.80
2018-08-18T17:18:37.068Z,28.80
2018-08-18T17:21:06.404Z,28.80
2018-08-18T17:23:35.871Z,28.70
2018-08-18T17:26:04.083Z,28.60
2018-08-18T17:28:32.879Z,29.00
2018-08-18T17:33:29.364Z,28.40
2018-08-18T17:35:57.628Z,28.40
2018-08-18T17:38:25.793Z,28.30
2018-08-18T17:40:54.073Z,28.30
2018-08-18T17:43:22.307Z,28.40
2018-08-18T17:45:59.268Z,28.40
2018-08-18T17:48:28.715Z,28.30
2018-08-18T17:50:57.155Z,28.30
2018-08-18T17:53:25.394Z,28.30
2018-08-18T17:56:02.774Z,28.30
2018-08-18T17:59:55.720Z,28.20
2018-08-18T18:02:23.859Z,28.20
2018-08-18T18:04:56.255Z,27.90
2018-08-18T18:07:24.403Z,27.70
2018-08-18T18:09:52.600Z,27.80
2018-08-18T18:17:18.031Z,27.80
2018-08-18T18:19:46.250Z,27.60
2018-08-18T18:22:14.514Z,27.60
2018-08-18T18:24:43.795Z,27.50
2018-08-18T18:27:12.050Z,27.40
2018-08-18T18:29:40.256Z,27.40
2018-08-18T18:32:08.511Z,27.40
2018-08-18T18:34:36.708Z,27.40
2018-08-18T18:37:04.938Z,27.10
2018-08-18T18:39:38.390Z,27.00
2018-08-18T18:42:06.660Z,26.70
2018-08-18T18:44:34.992Z,26.50
2018-08-18T18:47:03.227Z,26.40
2018-08-18T18:49:31.988Z,26.30
2018-08-18T18:52:00.441Z,26.10
2018-08-18T18:54:28.802Z,26.00
2018-08-18T18:56:57.074Z,25.70
2018-08-18T18:59:25.329Z,25.90
2018-08-18T19:01:53.524Z,24.90
2018-08-18T19:04:21.752Z,25.10
2018-08-18T19:07:02.932Z,25.10
2018-08-18T19:09:31.227Z,24.90
2018-08-18T19:16:55.617Z,24.70
2018-08-18T19:19:23.915Z,24.60
2018-08-18T19:21:52.191Z,24.60
2018-08-18T19:24:22.594Z,24.60
2018-08-18T19:26:56.060Z,24.50
2018-08-18T19:29:25.107Z,24.60
2018-08-18T19:31:55.305Z,24.50
2018-08-18T19:34:23.753Z,24.50
2018-08-18T19:37:00.554Z,24.50
2018-08-18T19:39:29.961Z,24.50
2018-08-18T19:42:06.762Z,24.50
2018-08-18T19:44:41.752Z,24.50
2018-08-18T19:47:09.975Z,24.40
2018-08-18T19:49:44.230Z,24.30
2018-08-18T19:52:14.404Z,24.30
2018-08-18T19:54:44.467Z,24.20
2018-08-18T19:57:12.881Z,24.20
2018-08-18T19:59:41.151Z,23.90
2018-08-18T20:02:09.465Z,23.90
2018-08-18T20:04:37.688Z,23.90
2018-08-18T20:07:05.845Z,23.90
2018-08-18T20:09:33.996Z,23.80
2018-08-18T20:12:02.171Z,23.70
2018-08-18T20:14:30.311Z,23.60
2018-08-18T20:18:01.774Z,23.60
2018-08-18T20:20:29.916Z,23.60
2018-08-18T20:22:58.144Z,23.50
2018-08-18T20:25:26.338Z,23.40
2018-08-18T20:27:54.570Z,23.50
2018-08-18T20:30:22.847Z,23.50
2018-08-18T20:32:51.123Z,23.40
2018-08-18T20:35:19.403Z,23.40
2018-08-18T20:37:47.686Z,23.20
2018-08-18T20:40:16.004Z,23.10
2018-08-18T20:42:44.787Z,23.10
2018-08-18T20:47:43.356Z,23.00
2018-08-18T20:50:12.304Z,23.00
2018-08-18T20:52:40.883Z,23.00
2018-08-18T20:55:09.598Z,23.00
2018-08-18T20:57:37.799Z,23.00
2018-08-18T21:00:07.682Z,22.90
2018-08-18T21:02:35.892Z,23.00
2018-08-18T21:05:05.222Z,22.90
2018-08-18T21:07:34.500Z,22.90
2018-08-18T21:10:11.391Z,22.90
2018-08-18T21:12:44.922Z,22.90
2018-08-18T21:15:13.587Z,22.80
2018-08-18T21:17:41.795Z,22.80
2018-08-18T21:20:11.815Z,22.80
2018-08-18T21:22:40.077Z,22.80
2018-08-18T21:25:09.322Z,22.80
2018-08-18T21:27:37.527Z,22.60
2018-08-18T21:30:08.313Z,22.50
2018-08-18T21:32:36.515Z,22.50
2018-08-18T21:35:05.472Z,22.30
2018-08-18T21:37:33.736Z,22.30
2018-08-18T21:40:01.936Z,22.30
2018-08-18T21:42:30.247Z,22.20
2018-08-18T21:44:58.450Z,22.60
2018-08-18T21:47:26.658Z,22.10
2018-08-18T21:49:54.952Z,22.10
2018-08-18T21:52:23.167Z,22.20
2018-08-18T21:54:51.393Z,22.30
2018-08-18T21:57:19.679Z,22.20
2018-08-18T21:59:56.091Z,22.20
2018-08-18T22:02:39.655Z,22.30
2018-08-18T22:05:11.536Z,22.30
2018-08-18T22:07:45.256Z,22.20
2018-08-18T22:10:13.483Z,22.00
2018-08-18T22:12:41.719Z,21.80
2018-08-18T22:15:15.594Z,21.80
2018-08-18T22:17:43.875Z,21.70
2018-08-18T22:20:12.118Z,21.60
2018-08-18T22:22:40.377Z,21.50
2018-08-18T22:25:08.560Z,21.40
2018-08-18T22:27:37.221Z,21.40
2018-08-18T22:30:10.468Z,21.50
2018-08-18T22:32:38.985Z,21.50
2018-08-18T22:35:07.639Z,21.50
2018-08-18T22:37:35.880Z,21.50
2018-08-18T22:40:04.778Z,21.50
2018-08-18T22:42:33.084Z,21.50
2018-08-18T22:45:12.690Z,21.40
2018-08-18T22:47:41.321Z,21.20
2018-08-18T22:50:09.543Z,21.00
2018-08-18T22:52:37.832Z,21.10
2018-08-18T22:55:06.094Z,21.10
2018-08-18T22:57:35.763Z,21.30
2018-08-18T23:00:04.398Z,21.20
2018-08-18T23:02:32.639Z,21.10
2018-08-18T23:05:00.840Z,21.10
2018-08-18T23:07:29.056Z,21.10
2018-08-18T23:09:57.332Z,21.00
2018-08-18T23:12:25.615Z,20.90
2018-08-18T23:14:53.863Z,20.90
2018-08-18T23:17:22.065Z,20.90
2018-08-18T23:19:50.289Z,20.90
2018-08-18T23:22:29.953Z,21.00
2018-08-18T23:24:58.241Z,20.90
2018-08-18T23:27:27.737Z,20.80
2018-08-18T23:29:56.051Z,20.80
2018-08-18T23:32:24.274Z,20.80
2018-08-18T23:34:53.698Z,20.60
2018-08-18T23:37:22.083Z,20.60
2018-08-18T23:39:54.771Z,20.70
2018-08-18T23:42:24.142Z,20.70
2018-08-18T23:44:52.331Z,21.00
2018-08-18T23:47:20.827Z,20.40
2018-08-18T23:52:17.562Z,20.30
2018-08-18T23:54:45.840Z,20.30
2018-08-18T23:59:44.499Z,20.30
